createdAt,value
2023-03-10T00:01:30.447Z,1.43
2023-03-10T00:04:06.279Z,1.40
2023-03-10T00:06:38.612Z,1.23
2023-03-10T00:09:08.180Z,1.30
2023-03-10T00:11:36.982Z,1.23
2023-03-10T00:14:06.449Z,1.10
2023-03-10T00:16:34.478Z,1.27
2023-03-10T00:19:02.648Z,1.53
2023-03-10T00:21:33.152Z,1.33
2023-03-10T00:24:01.739Z,1.57
2023-03-10T00:26:30.563Z,1.47
2023-03-10T00:28:59.022Z,1.70
2023-03-10T00:31:31.269Z,2.00
2023-03-10T00:34:00.582Z,1.30
2023-03-10T00:36:30.223Z,1.63
2023-03-10T00:39:00.875Z,1.50
2023-03-10T00:41:31.958Z,1.63
2023-03-10T00:44:00.696Z,1.50
2023-03-10T00:46:33.217Z,1.37
2023-03-10T00:49:01.422Z,1.57
2023-03-10T00:51:30.004Z,1.40
2023-03-10T00:53:58.053Z,1.57
2023-03-10T00:56:27.081Z,1.47
2023-03-10T00:59:03.347Z,1.30
2023-03-10T01:01:34.806Z,1.47
2023-03-10T01:04:05.358Z,1.33
2023-03-10T01:06:33.804Z,1.20
2023-03-10T01:09:02.486Z,1.40
2023-03-10T01:11:36.964Z,1.20
2023-03-10T01:14:07.384Z,0.90
2023-03-10T01:16:36.726Z,1.20
2023-03-10T01:19:04.874Z,1.30
2023-03-10T01:21:35.945Z,1.20
2023-03-10T01:24:05.605Z,1.20
2023-03-10T01:26:33.631Z,1.33
2023-03-10T01:29:01.697Z,1.60
2023-03-10T01:31:29.744Z,1.47
2023-03-10T01:33:59.189Z,1.47
2023-03-10T01:36:28.242Z,1.40
2023-03-10T01:38:57.512Z,1.40
2023-03-10T01:41:51.957Z,1.40
2023-03-10T01:44:30.257Z,1.30
2023-03-10T01:46:59.356Z,0.90
2023-03-10T01:49:40.590Z,1.48
2023-03-10T01:52:13.755Z,1.13
2023-03-10T01:54:49.467Z,1.08
2023-03-10T01:57:20.111Z,1.33
2023-03-10T01:59:55.205Z,1.10
2023-03-10T02:02:23.765Z,1.20
2023-03-10T02:05:11.409Z,1.30
2023-03-10T02:07:41.276Z,2.17
2023-03-10T02:10:11.429Z,1.20
2023-03-10T02:12:39.496Z,1.33
2023-03-10T02:15:08.552Z,1.48
2023-03-10T02:17:36.625Z,1.65
2023-03-10T02:20:45.318Z,1.40
2023-03-10T02:23:21.168Z,1.30
2023-03-10T02:25:54.942Z,1.30
2023-03-10T02:28:24.725Z,1.35
2023-03-10T02:31:00.369Z,1.30
2023-03-10T02:33:31.500Z,0.80
2023-03-10T02:36:04.670Z,0.80
2023-03-10T02:38:34.685Z,0.70
2023-03-10T02:41:17.256Z,0.70
2023-03-10T02:43:47.755Z,0.95
2023-03-10T02:46:33.288Z,0.75
2023-03-10T02:49:02.396Z,0.93
2023-03-10T02:51:33.657Z,0.95
2023-03-10T02:54:01.830Z,0.93
2023-03-10T02:56:32.167Z,0.68
2023-03-10T02:59:02.143Z,0.60
2023-03-10T03:01:31.249Z,0.85
2023-03-10T03:03:59.956Z,1.02
2023-03-10T03:06:29.308Z,0.40
2023-03-10T03:08:57.697Z,0.73
2023-03-10T03:11:25.826Z,0.60
2023-03-10T03:13:55.090Z,0.50
2023-03-10T03:16:24.523Z,0.55
2023-03-10T03:18:52.597Z,0.80
2023-03-10T03:21:21.407Z,0.40
2023-03-10T03:23:49.580Z,0.63
2023-03-10T03:26:19.148Z,0.38
2023-03-10T03:28:47.399Z,0.60
2023-03-10T03:31:17.681Z,0.73
2023-03-10T03:33:47.230Z,0.40
2023-03-10T03:36:18.506Z,0.40
2023-03-10T03:38:46.572Z,0.43
2023-03-10T03:41:14.520Z,0.40
2023-03-10T03:44:04.116Z,0.73
2023-03-10T03:46:35.429Z,0.40
2023-03-10T03:49:04.897Z,0.40
2023-03-10T03:51:32.916Z,0.40
2023-03-10T03:54:00.894Z,0.40
2023-03-10T03:56:28.865Z,0.60
2023-03-10T03:58:56.841Z,0.50
2023-03-10T04:01:26.950Z,0.50
2023-03-10T04:03:55.349Z,0.70
2023-03-10T04:06:24.764Z,0.40
2023-03-10T04:08:53.033Z,0.60
2023-03-10T04:11:21.021Z,0.67
2023-03-10T04:13:49.002Z,0.60
2023-03-10T04:16:17.042Z,0.77
2023-03-10T04:18:45.848Z,0.47
2023-03-10T04:21:32.451Z,0.60
2023-03-10T04:24:00.527Z,0.65
2023-03-10T04:26:28.605Z,0.50
2023-03-10T04:28:59.038Z,0.45
2023-03-10T04:31:27.889Z,0.47
2023-03-10T04:33:55.911Z,0.70
2023-03-10T04:36:23.869Z,0.60
2023-03-10T04:38:53.347Z,0.60
2023-03-10T04:41:21.354Z,0.60
2023-03-10T04:43:49.443Z,0.52
2023-03-10T04:46:19.782Z,1.83
2023-03-10T04:48:47.845Z,4.40
2023-03-10T04:51:16.016Z,1.63
2023-03-10T04:53:44.051Z,0.80
2023-03-10T04:56:38.181Z,0.43
2023-03-10T04:59:06.211Z,0.60
2023-03-10T05:01:37.382Z,0.70
2023-03-10T05:04:06.834Z,0.60
2023-03-10T05:06:34.887Z,0.70
2023-03-10T05:09:15.068Z,0.77
2023-03-10T05:11:44.391Z,0.77
2023-03-10T05:14:12.504Z,0.63
2023-03-10T05:16:40.513Z,0.70
2023-03-10T05:19:08.612Z,0.60
2023-03-10T05:21:36.626Z,0.80
2023-03-10T05:24:04.767Z,0.67
2023-03-10T05:26:34.761Z,0.80
2023-03-10T05:29:04.959Z,0.73
2023-03-10T05:31:33.057Z,0.90
2023-03-10T05:34:02.213Z,0.90
2023-03-10T05:36:30.206Z,1.00
2023-03-10T05:38:58.180Z,1.00
2023-03-10T05:41:26.304Z,0.80
2023-03-10T05:43:54.394Z,1.30
2023-03-10T05:46:23.824Z,1.07
2023-03-10T05:48:51.919Z,1.93
2023-03-10T05:51:25.416Z,2.57
2023-03-10T05:53:53.388Z,1.20
2023-03-10T05:56:22.376Z,0.80
2023-03-10T05:58:50.960Z,0.80
2023-03-10T06:01:19.448Z,1.00
2023-03-10T06:03:54.860Z,0.97
2023-03-10T06:06:27.147Z,1.20
2023-03-10T06:08:55.583Z,0.80
2023-03-10T06:11:24.956Z,1.00
2023-03-10T06:13:55.016Z,0.80
2023-03-10T06:16:27.125Z,1.27
2023-03-10T06:18:58.292Z,1.30
2023-03-10T06:21:28.538Z,1.13
2023-03-10T06:23:56.572Z,1.00
2023-03-10T06:26:24.592Z,1.27
2023-03-10T06:28:52.776Z,1.03
2023-03-10T06:31:23.352Z,1.17
2023-03-10T06:33:51.458Z,1.00
2023-03-10T06:36:21.811Z,1.40
2023-03-10T06:38:50.817Z,1.70
2023-03-10T06:41:19.686Z,1.70
2023-03-10T06:44:03.851Z,1.10
2023-03-10T06:46:31.827Z,1.10
2023-03-10T06:48:59.809Z,0.97
2023-03-10T06:51:29.159Z,1.37
2023-03-10T06:53:57.592Z,1.10
2023-03-10T06:56:25.582Z,0.70
2023-03-10T06:58:53.548Z,1.10
2023-03-10T07:01:23.970Z,0.93
2023-03-10T07:03:57.375Z,0.90
2023-03-10T07:06:26.249Z,0.40
2023-03-10T07:08:55.922Z,0.40
2023-03-10T07:11:24.393Z,0.40
2023-03-10T07:13:53.017Z,0.40
2023-03-10T07:16:21.418Z,0.63
2023-03-10T07:18:49.690Z,0.50
2023-03-10T07:21:19.904Z,0.43
2023-03-10T07:23:48.458Z,0.40
2023-03-10T07:26:19.175Z,0.60
2023-03-10T07:28:47.493Z,0.40
2023-03-10T07:31:16.978Z,0.50
2023-03-10T07:33:45.365Z,0.40
2023-03-10T07:36:16.333Z,0.90
2023-03-10T07:38:44.902Z,0.40
2023-03-10T07:41:16.094Z,0.57
2023-03-10T07:43:56.529Z,0.60
2023-03-10T07:46:39.707Z,0.50
2023-03-10T07:49:24.938Z,0.60
2023-03-10T07:51:54.037Z,0.40
2023-03-10T07:54:31.188Z,0.90
2023-03-10T07:57:21.975Z,0.40
2023-03-10T07:59:51.514Z,0.53
2023-03-10T08:02:20.761Z,0.67
2023-03-10T08:04:48.790Z,0.40
2023-03-10T08:07:17.065Z,0.50
2023-03-10T08:09:58.363Z,0.33
2023-03-10T08:12:26.446Z,0.57
2023-03-10T08:15:07.242Z,0.40
2023-03-10T08:17:35.587Z,0.67
2023-03-10T08:20:06.476Z,0.30
2023-03-10T08:22:34.560Z,0.50
2023-03-10T08:25:03.320Z,0.50
2023-03-10T08:27:37.790Z,0.40
2023-03-10T08:30:09.750Z,0.40
2023-03-10T08:32:38.759Z,0.93
2023-03-10T08:35:08.204Z,0.50
2023-03-10T08:37:44.937Z,0.30
2023-03-10T08:40:47.975Z,0.47
2023-03-10T08:43:15.976Z,0.37
2023-03-10T08:45:45.360Z,0.47
2023-03-10T08:48:13.297Z,0.50
2023-03-10T08:50:49.201Z,0.50
2023-03-10T08:53:17.181Z,0.33
2023-03-10T08:55:45.283Z,0.40
2023-03-10T08:58:14.217Z,0.40
2023-03-10T09:00:42.941Z,0.40
2023-03-10T09:03:15.070Z,0.33
2023-03-10T09:05:43.830Z,0.50
2023-03-10T09:08:13.022Z,0.63
2023-03-10T09:10:42.331Z,0.33
2023-03-10T09:13:13.941Z,0.40
2023-03-10T09:15:42.875Z,0.60
2023-03-10T09:18:15.087Z,0.70
2023-03-10T09:20:44.043Z,0.40
2023-03-10T09:23:13.744Z,0.50
2023-03-10T09:25:42.357Z,0.60
2023-03-10T09:28:11.742Z,0.45
2023-03-10T09:30:41.387Z,0.52
2023-03-10T09:33:20.605Z,0.50
2023-03-10T09:36:06.313Z,0.57
2023-03-10T09:38:35.087Z,0.50
2023-03-10T09:41:14.748Z,0.57
2023-03-10T09:44:00.188Z,0.70
2023-03-10T09:46:34.925Z,0.70
2023-03-10T09:49:09.822Z,0.47
2023-03-10T09:51:42.667Z,0.50
2023-03-10T09:54:33.577Z,0.77
2023-03-10T09:57:17.735Z,1.00
2023-03-10T09:59:47.804Z,0.77
2023-03-10T10:02:22.073Z,0.80
2023-03-10T10:04:56.358Z,0.40
2023-03-10T10:07:42.146Z,0.80
2023-03-10T10:10:17.513Z,0.73
2023-03-10T10:12:46.161Z,0.75
2023-03-10T10:15:18.794Z,0.68
2023-03-10T10:18:11.752Z,0.75
2023-03-10T10:20:50.576Z,0.80
2023-03-10T10:23:34.717Z,0.93
2023-03-10T10:26:09.791Z,0.60
2023-03-10T10:28:42.855Z,0.45
2023-03-10T10:31:15.800Z,0.90
2023-03-10T10:33:55.825Z,0.70
2023-03-10T10:36:27.068Z,0.77
2023-03-10T10:38:56.479Z,0.57
2023-03-10T10:41:31.217Z,0.77
2023-03-10T10:44:07.175Z,0.47
2023-03-10T10:46:36.461Z,0.85
2023-03-10T10:49:09.084Z,0.73
2023-03-10T10:51:38.777Z,0.60
2023-03-10T10:54:23.967Z,0.60
2023-03-10T10:56:56.551Z,0.60
2023-03-10T10:59:35.438Z,0.80
2023-03-10T11:02:13.212Z,0.50
2023-03-10T11:04:47.619Z,0.60
2023-03-10T11:07:25.287Z,0.60
2023-03-10T11:09:53.277Z,0.40
2023-03-10T11:12:57.869Z,0.70
2023-03-10T11:15:31.953Z,1.02
2023-03-10T11:18:04.942Z,0.77
2023-03-10T11:20:49.261Z,0.73
2023-03-10T11:23:26.691Z,0.65
2023-03-10T11:26:08.012Z,0.65
2023-03-10T11:28:50.326Z,0.50
2023-03-10T11:31:35.190Z,0.60
2023-03-10T11:34:16.919Z,0.47
2023-03-10T11:36:56.345Z,0.60
2023-03-10T11:39:36.636Z,0.40
2023-03-10T11:42:10.227Z,0.60
2023-03-10T11:44:42.460Z,0.43
2023-03-10T11:47:20.801Z,0.50
2023-03-10T11:49:56.607Z,0.50
2023-03-10T11:52:25.956Z,0.60
2023-03-10T11:55:01.808Z,0.30
2023-03-10T11:57:34.073Z,0.40
2023-03-10T12:00:07.900Z,0.50
2023-03-10T12:02:43.797Z,0.67
2023-03-10T12:05:21.232Z,0.40
2023-03-10T12:07:53.274Z,0.37
2023-03-10T12:10:24.071Z,0.20
2023-03-10T12:12:54.417Z,0.22
2023-03-10T12:15:24.906Z,0.40
2023-03-10T12:17:54.305Z,0.40
2023-03-10T12:20:28.446Z,0.43
2023-03-10T12:22:57.572Z,0.32
2023-03-10T12:25:46.918Z,0.40
2023-03-10T12:28:24.246Z,0.40
2023-03-10T12:30:56.443Z,0.30
2023-03-10T12:33:53.457Z,0.32
2023-03-10T12:36:33.509Z,0.30
2023-03-10T12:39:02.586Z,0.40
2023-03-10T12:41:47.811Z,0.40
2023-03-10T12:44:45.357Z,0.45
2023-03-10T12:47:39.617Z,0.40
2023-03-10T12:50:25.521Z,0.50
2023-03-10T12:52:59.655Z,0.75
2023-03-10T12:55:29.239Z,0.90
2023-03-10T12:58:09.727Z,0.60
2023-03-10T13:00:49.777Z,0.50
2023-03-10T13:03:27.065Z,0.40
2023-03-10T13:06:07.576Z,0.40
2023-03-10T13:08:43.966Z,0.60
2023-03-10T13:11:25.338Z,0.47
2023-03-10T13:13:59.514Z,0.57
2023-03-10T13:16:27.690Z,0.47
2023-03-10T13:18:56.258Z,0.50
2023-03-10T13:21:30.740Z,0.30
2023-03-10T13:23:59.484Z,0.45
2023-03-10T13:26:27.800Z,0.30
2023-03-10T13:28:59.214Z,0.40
2023-03-10T13:31:29.717Z,0.40
2023-03-10T13:33:58.324Z,0.43
2023-03-10T13:36:36.621Z,0.57
2023-03-10T13:39:15.570Z,1.00
2023-03-10T13:41:46.572Z,0.57
2023-03-10T13:44:21.004Z,0.40
2023-03-10T13:46:51.553Z,0.43
2023-03-10T13:49:22.216Z,0.30
2023-03-10T13:51:54.884Z,0.43
2023-03-10T13:54:24.577Z,0.55
2023-03-10T13:56:56.056Z,0.45
2023-03-10T13:59:28.441Z,0.30
2023-03-10T14:01:59.535Z,0.40
2023-03-10T14:04:42.693Z,0.50
2023-03-10T14:07:13.264Z,0.40
2023-03-10T14:09:42.122Z,0.47
2023-03-10T14:12:11.547Z,0.40
2023-03-10T14:14:42.219Z,0.30
2023-03-10T14:17:29.967Z,0.30
2023-03-10T14:19:58.553Z,0.77
2023-03-10T14:22:32.440Z,0.30
2023-03-10T14:25:04.281Z,0.40
2023-03-10T14:27:35.238Z,0.60
2023-03-10T14:30:15.774Z,0.50
2023-03-10T14:32:43.798Z,0.40
2023-03-10T14:35:13.122Z,0.38
2023-03-10T14:37:41.206Z,0.43
2023-03-10T14:40:10.785Z,0.57
2023-03-10T14:42:40.665Z,0.20
2023-03-10T14:45:27.454Z,0.50
2023-03-10T14:47:57.802Z,0.73
2023-03-10T14:50:27.381Z,0.50
2023-03-10T14:52:55.904Z,0.50
2023-03-10T14:55:24.276Z,0.33
2023-03-10T14:57:57.806Z,0.60
2023-03-10T15:00:27.767Z,0.40
2023-03-10T15:02:55.766Z,0.60
2023-03-10T15:05:31.911Z,0.40
2023-03-10T15:08:06.441Z,0.30
2023-03-10T15:10:37.044Z,0.53
2023-03-10T15:13:05.017Z,0.60
2023-03-10T15:15:39.076Z,0.60
2023-03-10T15:18:07.418Z,0.67
2023-03-10T15:20:35.382Z,0.87
2023-03-10T15:23:03.514Z,0.60
2023-03-10T15:25:31.515Z,0.50
2023-03-10T15:27:59.840Z,0.90
2023-03-10T15:30:29.891Z,0.70
2023-03-10T15:32:59.397Z,1.10
2023-03-10T15:35:29.168Z,0.73
2023-03-10T15:37:58.264Z,0.82
2023-03-10T15:40:28.754Z,0.60
2023-03-10T15:42:57.755Z,1.25
2023-03-10T15:45:26.691Z,0.70
2023-03-10T15:47:55.059Z,0.90
2023-03-10T15:50:26.222Z,0.70
2023-03-10T15:52:55.871Z,0.88
2023-03-10T15:55:25.996Z,1.15
2023-03-10T15:57:54.611Z,0.77
2023-03-10T16:00:25.531Z,1.40
2023-03-10T16:02:53.727Z,1.10
2023-03-10T16:05:21.775Z,1.13
2023-03-10T16:07:51.688Z,0.77
2023-03-10T16:10:21.368Z,0.60
2023-03-10T16:12:49.338Z,0.83
2023-03-10T16:15:18.548Z,1.90
2023-03-10T16:17:47.091Z,1.17
2023-03-10T16:20:16.909Z,1.43
2023-03-10T16:22:44.954Z,0.80
2023-03-10T16:25:16.204Z,1.00
2023-03-10T16:27:46.297Z,0.60
2023-03-10T16:30:17.243Z,0.90
2023-03-10T16:32:46.220Z,0.77
2023-03-10T16:35:14.391Z,1.63
2023-03-10T16:37:42.709Z,1.30
2023-03-10T16:40:11.974Z,1.33
2023-03-10T16:42:45.463Z,1.20
2023-03-10T16:45:13.780Z,0.70
2023-03-10T16:47:43.880Z,1.40
2023-03-10T16:50:14.199Z,1.70
2023-03-10T16:52:43.557Z,1.13
2023-03-10T16:55:17.286Z,1.30
2023-03-10T16:57:47.085Z,1.47
2023-03-10T17:00:20.898Z,1.30
2023-03-10T17:02:49.150Z,1.13
2023-03-10T17:05:17.662Z,2.63
2023-03-10T17:07:55.029Z,0.80
2023-03-10T17:10:23.933Z,1.33
2023-03-10T17:12:53.604Z,1.87
2023-03-10T17:15:21.593Z,1.20
2023-03-10T17:17:50.053Z,0.90
2023-03-10T17:20:19.783Z,1.07
2023-03-10T17:22:48.006Z,0.87
2023-03-10T17:25:16.009Z,1.13
2023-03-10T17:27:44.039Z,1.30
2023-03-10T17:30:15.567Z,1.17
2023-03-10T17:32:45.128Z,1.67
2023-03-10T17:35:13.170Z,1.00
2023-03-10T17:37:41.162Z,1.77
2023-03-10T17:40:10.544Z,1.17
2023-03-10T17:42:38.850Z,1.53
2023-03-10T17:45:08.134Z,2.70
2023-03-10T17:47:37.628Z,1.60
2023-03-10T17:50:06.350Z,1.27
2023-03-10T17:52:34.407Z,1.40
2023-03-10T17:55:02.413Z,1.83
2023-03-10T17:57:30.459Z,1.87
2023-03-10T17:59:58.495Z,2.13
2023-03-10T18:02:26.799Z,2.30
2023-03-10T18:04:56.884Z,2.30
2023-03-10T18:07:24.896Z,2.20
2023-03-10T18:09:53.755Z,1.80
2023-03-10T18:12:21.759Z,1.57
2023-03-10T18:14:49.746Z,2.27
2023-03-10T18:17:18.014Z,1.33
2023-03-10T18:19:45.955Z,1.67
2023-03-10T18:22:15.293Z,1.73
2023-03-10T18:24:43.347Z,2.00
2023-03-10T18:27:11.346Z,1.33
2023-03-10T18:29:39.732Z,1.27
2023-03-10T18:32:08.812Z,1.67
2023-03-10T18:34:36.886Z,2.00
2023-03-10T18:37:05.957Z,1.53
2023-03-10T18:39:35.277Z,2.37
2023-03-10T18:42:03.403Z,1.77
2023-03-10T18:44:31.499Z,1.93
2023-03-10T18:46:59.495Z,1.93
2023-03-10T18:49:27.503Z,1.00
2023-03-10T18:51:55.611Z,1.77
2023-03-10T18:54:26.006Z,1.60
2023-03-10T18:56:55.369Z,1.47
2023-03-10T18:59:25.486Z,0.70
2023-03-10T19:01:54.579Z,1.00
2023-03-10T19:04:22.670Z,1.63
2023-03-10T19:06:50.703Z,1.63
2023-03-10T19:09:19.244Z,1.23
2023-03-10T19:11:48.042Z,1.43
2023-03-10T19:14:18.098Z,0.97
2023-03-10T19:16:47.324Z,2.03
2023-03-10T19:19:15.378Z,1.67
2023-03-10T19:21:44.884Z,1.20
2023-03-10T19:24:12.951Z,1.60
2023-03-10T19:26:41.386Z,1.43
2023-03-10T19:29:09.344Z,1.57
2023-03-10T19:31:39.937Z,2.03
2023-03-10T19:34:08.160Z,0.80
2023-03-10T19:36:36.176Z,1.23
2023-03-10T19:39:04.396Z,1.47
2023-03-10T19:41:32.380Z,0.87
2023-03-10T19:44:00.415Z,1.00
2023-03-10T19:46:28.709Z,0.80
2023-03-10T19:48:58.159Z,1.17
2023-03-10T19:51:27.718Z,0.97
2023-03-10T19:54:01.960Z,1.20
2023-03-10T19:56:30.757Z,1.13
2023-03-10T19:58:58.757Z,1.90
2023-03-10T20:01:27.647Z,1.00
2023-03-10T20:03:59.470Z,1.53
2023-03-10T20:06:27.858Z,0.70
2023-03-10T20:08:57.237Z,0.90
2023-03-10T20:11:25.279Z,1.17
2023-03-10T20:13:54.489Z,1.20
2023-03-10T20:16:23.959Z,0.73
2023-03-10T20:18:52.265Z,0.70
2023-03-10T20:21:21.951Z,0.57
2023-03-10T20:23:49.973Z,1.70
2023-03-10T20:26:18.820Z,1.00
2023-03-10T20:28:47.235Z,0.93
2023-03-10T20:31:19.485Z,0.67
2023-03-10T20:33:48.144Z,1.20
2023-03-10T20:36:16.433Z,1.33
2023-03-10T20:38:47.219Z,0.70
2023-03-10T20:41:17.056Z,0.70
2023-03-10T20:43:45.385Z,0.93
2023-03-10T20:46:14.304Z,0.80
2023-03-10T20:48:49.869Z,0.93
2023-03-10T20:51:19.166Z,0.80
2023-03-10T20:53:48.840Z,0.80
2023-03-10T20:56:16.866Z,0.60
2023-03-10T20:58:44.932Z,1.43
2023-03-10T21:01:39.443Z,0.87
2023-03-10T21:04:07.699Z,0.50
2023-03-10T21:06:37.392Z,1.40
2023-03-10T21:09:06.850Z,0.60
2023-03-10T21:11:42.281Z,0.90
2023-03-10T21:14:10.255Z,0.80
2023-03-10T21:16:41.544Z,0.90
2023-03-10T21:19:24.735Z,0.73
2023-03-10T21:21:54.789Z,0.90
2023-03-10T21:24:30.313Z,0.80
2023-03-10T21:26:59.019Z,0.77
2023-03-10T21:29:27.109Z,0.97
2023-03-10T21:31:55.261Z,0.80
2023-03-10T21:34:26.654Z,1.03
2023-03-10T21:37:04.490Z,1.10
2023-03-10T21:39:34.051Z,0.70
2023-03-10T21:42:04.541Z,1.33
2023-03-10T21:44:33.198Z,0.93
2023-03-10T21:47:01.232Z,0.90
2023-03-10T21:49:30.621Z,0.83
2023-03-10T21:51:58.639Z,1.00
2023-03-10T21:54:26.713Z,1.00
2023-03-10T21:56:59.504Z,1.13
2023-03-10T21:59:40.873Z,1.00
2023-03-10T22:02:09.333Z,0.50
2023-03-10T22:04:40.852Z,1.00
2023-03-10T22:07:08.871Z,0.70
2023-03-10T22:09:38.764Z,0.70
2023-03-10T22:12:08.833Z,0.77
2023-03-10T22:14:36.817Z,1.43
2023-03-10T22:17:04.846Z,1.10
2023-03-10T22:19:32.954Z,1.60
2023-03-10T22:22:00.965Z,1.00
2023-03-10T22:24:28.931Z,1.27
2023-03-10T22:26:58.271Z,1.10
2023-03-10T22:29:28.706Z,1.67
2023-03-10T22:31:58.055Z,1.23
2023-03-10T22:34:26.171Z,0.80
2023-03-10T22:36:54.173Z,0.97
2023-03-10T22:39:23.277Z,1.10
2023-03-10T22:41:51.601Z,0.90
2023-03-10T22:44:19.613Z,1.00
2023-03-10T22:46:49.056Z,1.03
2023-03-10T22:49:18.709Z,1.00
2023-03-10T22:51:49.210Z,1.00
2023-03-10T22:54:17.321Z,0.90
2023-03-10T22:56:45.317Z,1.27
2023-03-10T22:59:24.684Z,1.00
2023-03-10T23:01:54.167Z,0.80
2023-03-10T23:04:22.186Z,0.80
2023-03-10T23:06:50.317Z,1.20
2023-03-10T23:09:20.452Z,0.90
2023-03-10T23:11:49.038Z,1.20
2023-03-10T23:14:17.353Z,1.07
2023-03-10T23:16:45.322Z,1.20
2023-03-10T23:19:14.904Z,1.13
2023-03-10T23:21:45.164Z,1.17
2023-03-10T23:24:13.191Z,1.07
2023-03-10T23:26:41.205Z,1.00
2023-03-10T23:29:09.163Z,1.30
2023-03-10T23:31:37.300Z,0.70
2023-03-10T23:34:05.366Z,0.90
2023-03-10T23:36:34.790Z,0.70
2023-03-10T23:39:02.819Z,1.30
2023-03-10T23:41:30.868Z,1.00
2023-03-10T23:43:58.869Z,1.13
2023-03-10T23:46:26.873Z,0.90
2023-03-10T23:48:54.886Z,1.30
2023-03-10T23:51:22.829Z,1.77
2023-03-10T23:53:52.215Z,1.00
2023-03-10T23:56:20.151Z,1.17
2023-03-10T23:58:48.111Z,1.30
